Time;durP1;ratioP1;P1;durP2;ratioP2;P2;SDS_P1;SDS_P2;PMS_P1;PMS_P2;Temp;Humidity;BMP_temperature;BMP_pressure;BME280_temperature;BME280_humidity;BME280_pressure;Samples;Min_cycle;Max_cycle;Signal;HPM_P1;HPM_P2
2021/12/10 00:01:52;;;;;;;43.53;25.05;;;4.70;99.90;;;;;;5067151;28;20037;-82
2021/12/10 00:04:29;;;;;;;44.97;26.03;;;4.70;99.90;;;;;;5016992;28;234099;-83
2021/12/10 00:07:00;;;;;;;43.03;24.02;;;4.70;99.90;;;;;;5049192;28;20313;-83
2021/12/10 00:09:31;;;;;;;40.55;22.83;;;4.80;99.90;;;;;;5048186;28;127872;-84
2021/12/10 00:12:09;;;;;;;43.20;23.75;;;4.70;99.90;;;;;;5044577;28;20056;-84
2021/12/10 00:14:41;;;;;;;44.47;25.20;;;4.80;99.90;;;;;;5045311;28;292222;-83
2021/12/10 00:17:16;;;;;;;48.83;25.23;;;4.80;99.90;;;;;;5056419;28;20045;-83
2021/12/10 00:19:47;;;;;;;41.10;23.05;;;4.80;99.90;;;;;;5035721;28;233007;-83
2021/12/10 00:22:20;;;;;;;43.40;23.60;;;4.80;99.90;;;;;;5055650;28;20048;-84
2021/12/10 00:24:49;;;;;;;43.55;24.08;;;4.80;99.90;;;;;;5055196;28;232031;-85
2021/12/10 00:27:26;;;;;;;43.13;23.05;;;4.80;99.90;;;;;;5053669;28;20051;-84
2021/12/10 00:30:05;;;;;;;43.13;22.33;;;4.80;99.90;;;;;;5051667;28;20492;-83
2021/12/10 00:32:36;;;;;;;41.40;23.15;;;4.80;99.90;;;;;;5063419;28;20044;-83
2021/12/10 00:35:08;;;;;;;;;;;4.80;99.90;;;;;;5038306;28;268600;-84
2021/12/10 00:37:35;;;;;;;37.53;20.90;;;4.80;99.90;;;;;;5053092;28;19924;-83
2021/12/10 00:40:06;;;;;;;40.97;21.83;;;4.80;99.90;;;;;;5032146;28;41578;-84
2021/12/10 00:42:35;;;;;;;37.08;21.77;;;4.80;99.90;;;;;;5052706;28;20047;-83
2021/12/10 00:45:06;;;;;;;41.70;22.17;;;4.90;99.90;;;;;;5020378;28;219887;-83
2021/12/10 00:47:33;;;;;;;39.20;21.98;;;4.90;99.90;;;;;;5052023;28;20057;-84
2021/12/10 00:50:06;;;;;;;40.75;22.17;;;4.80;99.90;;;;;;5041753;28;63780;-85
2021/12/10 00:52:32;;;;;;;45.70;20.67;;;4.90;99.90;;;;;;5039083;28;20068;-82
2021/12/10 00:54:59;;;;;;;41.45;22.25;;;4.80;99.90;;;;;;5037743;28;224300;-83
2021/12/10 00:57:28;;;;;;;40.83;21.52;;;4.90;99.90;;;;;;5037571;28;20056;-81
2021/12/10 00:59:54;;;;;;;40.90;21.33;;;4.80;99.90;;;;;;5033192;28;214405;-82
2021/12/10 01:02:24;;;;;;;41.05;20.77;;;4.90;99.90;;;;;;5062289;28;20043;-83
2021/12/10 01:04:56;;;;;;;34.78;19.55;;;4.90;99.90;;;;;;5040207;28;274621;-82
2021/12/10 01:07:28;;;;;;;38.05;21.38;;;4.90;99.90;;;;;;5035568;28;20056;-82
2021/12/10 01:09:57;;;;;;;36.13;20.33;;;4.90;99.90;;;;;;5043080;28;271181;-82
2021/12/10 01:12:38;;;;;;;34.15;19.40;;;4.90;99.90;;;;;;5060396;28;20053;-82
2021/12/10 01:15:56;;;;;;;37.60;20.33;;;4.90;99.90;;;;;;5048594;28;147221;-82
2021/12/10 01:27:01;;;;;;;35.20;17.55;;;4.90;99.90;;;;;;5064264;28;20052;-84
2021/12/10 01:29:35;;;;;;;37.22;17.23;;;4.90;99.90;;;;;;5041552;28;172974;-83
2021/12/10 01:32:05;;;;;;;32.28;18.50;;;4.90;99.90;;;;;;5060061;28;20060;-84
2021/12/10 01:34:32;;;;;;;36.47;17.30;;;4.80;99.90;;;;;;5054866;28;119115;-85
2021/12/10 01:37:01;;;;;;;37.70;17.42;;;4.80;99.90;;;;;;5054594;28;20056;-85
2021/12/10 01:39:33;;;;;;;26.65;14.45;;;4.80;99.90;;;;;;5048707;28;237425;-83
2021/12/10 01:42:20;;;;;;;26.77;15.13;;;4.80;99.90;;;;;;5065047;28;20055;-85
2021/12/10 01:44:52;;;;;;;29.10;13.60;;;4.80;99.90;;;;;;5060593;28;266367;-83
2021/12/10 01:47:23;;;;;;;29.52;14.43;;;4.80;99.90;;;;;;5069178;28;20048;-83
2021/12/10 01:49:51;;;;;;;32.92;14.77;;;4.80;99.90;;;;;;5075796;28;234655;-82
2021/12/10 01:52:18;;;;;;;27.13;13.75;;;4.80;99.90;;;;;;5071282;28;20056;-83
2021/12/10 01:54:54;;;;;;;29.63;14.02;;;4.70;99.90;;;;;;5057658;28;118431;-83
2021/12/10 01:57:24;;;;;;;34.05;15.68;;;4.70;99.90;;;;;;5063407;28;20060;-82
2021/12/10 01:59:54;;;;;;;30.55;14.52;;;4.70;99.90;;;;;;5044713;28;154025;-82
2021/12/10 02:02:24;;;;;;;33.80;15.63;;;4.70;99.90;;;;;;5046801;28;20241;-83
2021/12/10 02:04:52;;;;;;;30.30;14.65;;;4.70;99.90;;;;;;5034871;28;186076;-83
2021/12/10 02:07:21;;;;;;;30.55;15.30;;;4.70;99.90;;;;;;5069162;28;20047;-84
2021/12/10 02:09:49;;;;;;;33.80;15.35;;;4.70;99.90;;;;;;5041520;28;239404;-83
2021/12/10 02:12:18;;;;;;;28.95;14.23;;;4.70;99.90;;;;;;5053956;28;20059;-82
2021/12/10 02:14:59;;;;;;;31.95;14.98;;;4.60;99.90;;;;;;5040218;28;151041;-82
2021/12/10 02:17:36;;;;;;;29.70;14.40;;;4.70;99.90;;;;;;5066007;28;20060;-81
2021/12/10 02:20:09;;;;;;;28.73;13.70;;;4.60;99.90;;;;;;5056306;28;288523;-82
2021/12/10 02:22:35;;;;;;;30.58;14.57;;;4.60;99.90;;;;;;5047628;28;20655;-80
2021/12/10 02:25:04;;;;;;;30.70;13.98;;;4.70;99.90;;;;;;5046647;28;254916;-81
2021/12/10 02:27:32;;;;;;;30.02;14.05;;;4.60;99.90;;;;;;5046999;28;20105;-81
2021/12/10 02:30:02;;;;;;;30.38;15.30;;;4.70;99.90;;;;;;5046997;28;268884;-82
2021/12/10 02:32:31;;;;;;;32.50;14.63;;;4.60;99.90;;;;;;5044169;28;20072;-82
2021/12/10 02:34:57;;;;;;;30.73;16.52;;;4.70;99.90;;;;;;5036505;28;223877;-82
2021/12/10 02:37:23;;;;;;;31.50;16.02;;;4.70;99.90;;;;;;5062444;28;20052;-81
2021/12/10 02:39:49;;;;;;;32.70;15.55;;;4.60;99.90;;;;;;5049825;28;267514;-82
2021/12/10 02:42:16;;;;;;;33.70;16.45;;;4.60;99.90;;;;;;5077758;28;20250;-85
2021/12/10 02:44:42;;;;;;;27.15;16.35;;;4.70;99.90;;;;;;5058624;28;220811;-84
2021/12/10 02:47:09;;;;;;;32.13;15.60;;;4.60;99.90;;;;;;5065146;28;20044;-83
2021/12/10 02:49:35;;;;;;;37.25;16.38;;;4.60;99.90;;;;;;5031771;28;211952;-83
2021/12/10 02:52:02;;;;;;;32.78;16.95;;;4.60;99.90;;;;;;5066193;28;20049;-83
2021/12/10 02:54:36;;;;;;;33.72;16.92;;;4.60;99.90;;;;;;5033879;28;79476;-85
2021/12/10 02:57:17;;;;;;;28.38;16.00;;;4.60;99.90;;;;;;5060716;28;20553;-83
2021/12/10 02:59:44;;;;;;;;;;;4.50;99.90;;;;;;5026116;28;142199;-83
2021/12/10 03:02:17;;;;;;;32.85;16.65;;;4.60;99.90;;;;;;5066442;28;20474;-82
2021/12/10 03:04:46;;;;;;;34.50;16.88;;;4.50;99.90;;;;;;5040614;28;177339;-81
2021/12/10 03:07:15;;;;;;;35.88;16.60;;;4.50;99.90;;;;;;5062946;28;20052;-84
2021/12/10 03:09:44;;;;;;;31.42;16.92;;;4.50;99.90;;;;;;5042043;28;57387;-82
2021/12/10 03:12:13;;;;;;;35.65;17.02;;;4.50;99.90;;;;;;5062873;28;20040;-84
2021/12/10 03:14:45;;;;;;;36.67;17.88;;;4.60;99.90;;;;;;5043930;28;263679;-83
2021/12/10 03:17:15;;;;;;;30.63;16.30;;;4.60;99.90;;;;;;5063331;28;20045;-82
2021/12/10 03:19:45;;;;;;;31.27;16.58;;;4.50;99.90;;;;;;5055729;28;165915;-83
2021/12/10 03:22:12;;;;;;;28.52;15.80;;;4.50;99.90;;;;;;5046337;28;20059;-83
2021/12/10 03:24:38;;;;;;;31.75;15.63;;;4.50;99.90;;;;;;5053895;28;252790;-85
2021/12/10 03:27:10;;;;;;;25.20;14.30;;;4.50;99.90;;;;;;5063416;28;20057;-83
2021/12/10 03:29:40;;;;;;;29.02;14.40;;;4.50;99.90;;;;;;5061186;28;257446;-85
2021/12/10 03:32:10;;;;;;;29.05;15.57;;;4.50;99.90;;;;;;5067753;28;20512;-84
2021/12/10 03:34:37;;;;;;;26.67;14.93;;;4.50;99.90;;;;;;5055691;28;261002;-82
2021/12/10 03:37:05;;;;;;;28.90;14.95;;;4.50;99.90;;;;;;5064530;28;20036;-84
2021/12/10 03:39:32;;;;;;;30.95;15.32;;;4.50;99.90;;;;;;5038711;28;130107;-81
2021/12/10 03:41:59;;;;;;;32.55;15.82;;;4.50;99.90;;;;;;5062856;28;20502;-82
2021/12/10 03:44:27;;;;;;;33.08;15.75;;;4.50;99.90;;;;;;5023473;28;253771;-82
2021/12/10 03:46:54;;;;;;;26.95;16.13;;;4.50;99.90;;;;;;5053148;28;20393;-83
2021/12/10 03:49:21;;;;;;;29.00;16.33;;;4.40;99.90;;;;;;5051858;28;118089;-83
2021/12/10 03:51:48;;;;;;;28.25;17.10;;;4.50;99.90;;;;;;5083560;28;20036;-83
2021/12/10 03:54:17;;;;;;;32.88;18.45;;;4.40;99.90;;;;;;5056737;28;259786;-84
2021/12/10 03:56:44;;;;;;;29.05;17.30;;;4.40;99.90;;;;;;5071200;28;20037;-82
2021/12/10 03:59:14;;;;;;;31.27;17.67;;;4.40;99.90;;;;;;5060713;28;20048;-82
2021/12/10 04:01:46;;;;;;;33.10;19.13;;;4.40;99.90;;;;;;5035040;28;20052;-82
2021/12/10 04:04:19;;;;;;;29.38;16.45;;;4.40;99.90;;;;;;5041159;28;66629;-82
2021/12/10 04:06:47;;;;;;;24.90;16.00;;;4.30;99.90;;;;;;5062553;28;20654;-82
2021/12/10 04:09:14;;;;;;;32.78;16.63;;;4.30;99.90;;;;;;5059016;28;256749;-82
2021/12/10 04:11:41;;;;;;;29.85;16.50;;;4.30;99.90;;;;;;5060606;28;20501;-82
2021/12/10 04:14:08;;;;;;;28.38;17.52;;;4.30;99.90;;;;;;5032875;28;151433;-83
2021/12/10 04:16:35;;;;;;;32.05;17.98;;;4.30;99.90;;;;;;5062537;28;20048;-83
2021/12/10 04:19:05;;;;;;;27.70;17.25;;;4.20;99.90;;;;;;5044855;28;75746;-82
2021/12/10 04:21:38;;;;;;;31.17;17.58;;;4.30;99.90;;;;;;5049016;28;20065;-82
2021/12/10 04:24:05;;;;;;;30.98;17.02;;;4.10;99.90;;;;;;5050937;28;91552;-82
2021/12/10 04:26:31;;;;;;;25.92;16.38;;;4.10;99.90;;;;;;5043640;28;20071;-82
2021/12/10 04:28:57;;;;;;;28.80;17.13;;;4.00;99.90;;;;;;5040377;28;204295;-82
2021/12/10 04:31:24;;;;;;;29.30;17.67;;;3.90;99.90;;;;;;5047784;28;20045;-82
2021/12/10 04:33:51;;;;;;;35.38;18.23;;;3.90;99.90;;;;;;5047305;28;155689;-85
2021/12/10 04:36:18;;;;;;;28.73;18.38;;;3.80;99.90;;;;;;5075908;28;20059;-81
2021/12/10 04:38:47;;;;;;;29.13;18.83;;;3.70;99.90;;;;;;5047294;28;261803;-82
2021/12/10 04:41:14;;;;;;;27.60;17.67;;;3.70;99.90;;;;;;5064279;28;20052;-82
2021/12/10 04:43:42;;;;;;;30.48;19.17;;;3.60;99.90;;;;;;5047646;28;248950;-82
2021/12/10 04:46:09;;;;;;;35.67;20.60;;;3.60;99.90;;;;;;5052734;28;20049;-82
2021/12/10 04:48:46;;;;;;;35.60;20.65;;;3.50;99.90;;;;;;5050833;28;270369;-84
2021/12/10 04:51:12;;;;;;;31.73;19.95;;;3.40;99.90;;;;;;5048075;28;20063;-82
2021/12/10 04:53:39;;;;;;;36.15;20.73;;;3.40;99.90;;;;;;5049813;28;270482;-82
2021/12/10 04:56:05;;;;;;;33.22;20.27;;;3.40;99.90;;;;;;5086454;28;20048;-81
2021/12/10 04:58:32;;;;;;;36.47;20.57;;;3.30;99.90;;;;;;5055381;28;259138;-81
2021/12/10 05:01:03;;;;;;;36.55;20.38;;;3.30;99.90;;;;;;5074651;28;20067;-81
2021/12/10 05:03:33;;;;;;;35.45;19.63;;;3.40;99.90;;;;;;5040074;28;239624;-82
2021/12/10 05:06:04;;;;;;;36.50;20.58;;;3.30;99.90;;;;;;5047097;28;20494;-82
2021/12/10 05:08:35;;;;;;;34.92;20.33;;;3.40;99.90;;;;;;5044166;28;246055;-80
2021/12/10 05:11:05;;;;;;;35.38;20.77;;;3.40;99.90;;;;;;5062131;28;20056;-81
2021/12/10 05:13:32;;;;;;;32.27;20.17;;;3.30;99.90;;;;;;5045210;28;257975;-81
2021/12/10 05:16:04;;;;;;;39.42;21.80;;;3.30;99.90;;;;;;5060941;28;20048;-82
2021/12/10 05:18:39;;;;;;;35.25;21.13;;;3.30;99.90;;;;;;5047917;28;259390;-82
2021/12/10 05:21:09;;;;;;;34.97;20.05;;;3.20;99.90;;;;;;5033755;28;20477;-81
2021/12/10 05:23:45;;;;;;;34.85;20.15;;;3.20;99.90;;;;;;5026923;28;271649;-82
2021/12/10 05:26:11;;;;;;;32.50;19.17;;;3.20;99.90;;;;;;5047676;28;20058;-83
2021/12/10 05:28:41;;;;;;;33.72;21.42;;;3.20;99.90;;;;;;5059051;28;253119;-82
2021/12/10 05:31:07;;;;;;;34.40;21.17;;;3.10;99.90;;;;;;5062533;28;20057;-83
2021/12/10 05:33:34;;;;;;;36.92;21.90;;;3.10;99.90;;;;;;5041538;28;287922;-83
2021/12/10 05:36:01;;;;;;;34.42;21.23;;;3.10;99.90;;;;;;5049630;28;20402;-83
2021/12/10 05:38:29;;;;;;;35.90;21.27;;;3.10;99.90;;;;;;5044283;28;244626;-83
2021/12/10 05:40:59;;;;;;;35.50;21.80;;;3.10;99.90;;;;;;5030843;28;20060;-83
2021/12/10 05:43:29;;;;;;;35.45;22.15;;;3.10;99.90;;;;;;5053722;28;245534;-82
2021/12/10 05:45:55;;;;;;;36.83;22.73;;;3.00;99.90;;;;;;5060131;28;20501;-82
2021/12/10 05:48:21;;;;;;;36.25;23.20;;;3.00;99.90;;;;;;5046840;28;263490;-81
2021/12/10 05:50:50;;;;;;;35.63;22.40;;;2.90;99.90;;;;;;5047200;28;20403;-82
2021/12/10 05:53:21;;;;;;;35.13;22.58;;;2.90;99.90;;;;;;5052532;28;20040;-85
2021/12/10 05:55:48;;;;;;;35.10;22.23;;;2.90;99.90;;;;;;5038297;28;20036;-84
2021/12/10 05:58:18;;;;;;;33.90;21.42;;;2.90;99.90;;;;;;5064416;28;20044;-82
2021/12/10 06:00:49;;;;;;;37.75;22.30;;;2.90;99.90;;;;;;5027625;28;282472;-85
2021/12/10 06:03:17;;;;;;;39.83;22.48;;;2.90;99.90;;;;;;5066310;28;20139;-83
2021/12/10 06:05:45;;;;;;;35.47;21.52;;;2.80;99.90;;;;;;5033858;28;208974;-81
2021/12/10 06:08:12;;;;;;;33.90;21.67;;;2.80;99.90;;;;;;5063892;28;20080;-82
2021/12/10 06:10:40;;;;;;;33.80;20.73;;;2.80;99.90;;;;;;5068599;28;265886;-82
2021/12/10 06:13:07;;;;;;;33.45;20.67;;;2.70;99.90;;;;;;5069826;28;20048;-83
2021/12/10 06:15:37;;;;;;;33.08;20.45;;;2.70;99.90;;;;;;5045487;28;277694;-82
2021/12/10 06:18:05;;;;;;;30.88;18.85;;;2.70;99.90;;;;;;5077780;28;20061;-87
2021/12/10 06:20:38;;;;;;;32.05;19.13;;;2.60;99.90;;;;;;5032158;28;99444;-82
2021/12/10 06:23:06;;;;;;;30.23;19.02;;;2.60;99.90;;;;;;5071632;28;20048;-82
2021/12/10 06:25:33;;;;;;;31.77;19.77;;;2.50;99.90;;;;;;5061472;28;259747;-82
2021/12/10 06:28:00;;;;;;;28.90;18.80;;;2.50;99.90;;;;;;5062857;28;20051;-82
2021/12/10 06:30:30;;;;;;;29.98;18.90;;;2.50;99.90;;;;;;5031181;28;244189;-84
2021/12/10 06:33:03;;;;;;;30.73;19.30;;;2.50;99.90;;;;;;5052860;28;20103;-84
2021/12/10 06:35:30;;;;;;;28.77;17.80;;;2.50;99.90;;;;;;5063714;28;245558;-84
2021/12/10 06:38:03;;;;;;;29.00;17.33;;;2.50;99.90;;;;;;5062443;28;20052;-84
2021/12/10 06:40:33;;;;;;;30.17;17.58;;;2.40;99.90;;;;;;5020611;28;174295;-83
2021/12/10 06:43:06;;;;;;;28.38;18.05;;;2.40;99.90;;;;;;5055901;28;20056;-84
2021/12/10 06:45:36;;;;;;;28.15;16.92;;;2.30;99.90;;;;;;4929956;28;3003000;-82
2021/12/10 06:48:08;;;;;;;29.50;17.08;;;2.30;99.90;;;;;;5063221;28;20052;-82
2021/12/10 06:50:41;;;;;;;31.63;17.38;;;2.30;99.90;;;;;;5044259;28;125311;-83
2021/12/10 06:53:11;;;;;;;27.27;15.80;;;2.30;99.90;;;;;;5066767;28;20032;-81
2021/12/10 06:55:43;;;;;;;31.17;17.00;;;2.30;99.90;;;;;;5056709;28;277257;-82
2021/12/10 06:58:09;;;;;;;27.10;16.77;;;2.20;99.90;;;;;;5057813;28;20053;-85
2021/12/10 07:00:41;;;;;;;26.13;16.48;;;2.20;99.90;;;;;;5041227;28;256065;-82
2021/12/10 07:03:13;;;;;;;28.95;16.55;;;2.20;99.90;;;;;;5064302;28;20064;-84
2021/12/10 07:06:00;;;;;;;27.50;15.43;;;2.20;99.90;;;;;;5027714;28;113546;-83
2021/12/10 07:08:30;;;;;;;30.35;16.38;;;2.20;99.90;;;;;;5024350;28;278855;-83
2021/12/10 07:10:58;;;;;;;24.48;16.38;;;2.10;99.90;;;;;;5034893;28;20064;-83
2021/12/10 07:13:25;;;;;;;27.38;16.27;;;2.20;99.90;;;;;;5027060;28;248038;-81
2021/12/10 07:15:54;;;;;;;26.95;16.27;;;2.10;99.90;;;;;;5049554;28;20040;-81
2021/12/10 07:18:22;;;;;;;27.20;15.57;;;2.00;99.90;;;;;;5047755;28;259473;-81
2021/12/10 07:20:51;;;;;;;27.95;16.10;;;2.10;99.90;;;;;;5059689;28;20048;-80
2021/12/10 07:23:19;;;;;;;31.65;15.68;;;2.00;99.90;;;;;;5072939;28;20115;-83
2021/12/10 07:25:45;;;;;;;32.28;15.88;;;2.10;99.90;;;;;;5038621;28;20044;-82
2021/12/10 07:28:11;;;;;;;26.30;15.40;;;2.00;99.90;;;;;;5046796;28;20056;-85
2021/12/10 07:30:40;;;;;;;24.95;15.57;;;2.00;99.90;;;;;;5013115;28;235802;-84
2021/12/10 07:33:08;;;;;;;34.38;16.27;;;1.90;99.90;;;;;;5057596;28;20041;-83
2021/12/10 07:35:45;;;;;;;29.25;15.77;;;1.80;99.90;;;;;;5032810;28;69844;-84
2021/12/10 07:38:12;;;;;;;26.17;15.95;;;1.80;99.90;;;;;;5058419;28;20048;-84
2021/12/10 07:40:42;;;;;;;24.60;14.57;;;1.90;99.90;;;;;;5017784;28;42479;-83
2021/12/10 07:43:11;;;;;;;29.35;15.45;;;1.80;99.90;;;;;;5067114;28;20599;-82
2021/12/10 07:45:42;;;;;;;26.13;15.00;;;1.80;99.90;;;;;;5030745;28;127459;-82
2021/12/10 07:48:11;;;;;;;28.88;15.07;;;1.80;99.90;;;;;;5073627;28;20366;-82
2021/12/10 07:50:42;;;;;;;29.02;15.52;;;1.80;99.90;;;;;;5035997;28;281425;-83
2021/12/10 07:53:11;;;;;;;26.70;14.05;;;1.80;99.90;;;;;;5073837;28;20056;-83
2021/12/10 07:55:39;;;;;;;31.00;15.52;;;1.90;99.90;;;;;;5041822;28;273808;-83
2021/12/10 07:58:07;;;;;;;30.05;14.52;;;1.80;99.90;;;;;;5056285;28;20056;-84
2021/12/10 08:00:44;;;;;;;29.58;14.90;;;1.80;99.90;;;;;;5030104;28;138015;-83
2021/12/10 08:03:32;;;;;;;26.50;13.95;;;1.80;99.90;;;;;;5032439;28;267169;-84
2021/12/10 08:06:26;;;;;;;27.98;14.60;;;1.80;99.90;;;;;;5013932;28;239812;-84
2021/12/10 08:09:06;;;;;;;25.38;14.65;;;1.80;99.90;;;;;;5040366;28;111699;-86
2021/12/10 08:11:37;;;;;;;33.80;14.10;;;1.80;99.90;;;;;;5049665;28;20057;-82
2021/12/10 08:14:06;;;;;;;24.92;13.73;;;1.80;99.90;;;;;;5056234;28;178859;-83
2021/12/10 08:16:33;;;;;;;27.50;14.65;;;1.80;99.90;;;;;;5039264;28;20557;-82
2021/12/10 08:19:29;;;;;;;26.75;14.10;;;1.80;99.90;;;;;;5025236;28;288080;-88
2021/12/10 08:22:07;;;;;;;27.10;14.25;;;1.80;99.90;;;;;;5054426;28;20059;-82
2021/12/10 08:24:33;;;;;;;25.27;13.60;;;1.80;99.90;;;;;;5063642;28;46470;-82
2021/12/10 08:27:05;;;;;;;24.83;12.88;;;1.80;99.90;;;;;;5067351;28;20051;-81
2021/12/10 08:29:34;;;;;;;25.35;13.38;;;1.80;99.90;;;;;;5059810;28;227755;-82
2021/12/10 08:32:07;;;;;;;26.08;13.98;;;1.90;99.90;;;;;;5076644;28;20178;-83
2021/12/10 08:34:36;;;;;;;26.83;13.75;;;1.90;99.90;;;;;;5029620;28;256462;-86
2021/12/10 08:37:22;;;;;;;24.20;12.90;;;1.90;99.90;;;;;;5067268;28;20059;-83
2021/12/10 08:39:56;;;;;;;22.05;12.63;;;2.00;99.90;;;;;;5025595;28;257689;-86
2021/12/10 08:42:35;;;;;;;23.95;12.43;;;2.00;99.90;;;;;;5055204;28;20059;-85
2021/12/10 08:45:30;;;;;;;23.75;12.13;;;2.00;99.90;;;;;;5084080;28;79192;-86
2021/12/10 08:47:59;;;;;;;21.65;12.55;;;2.10;99.90;;;;;;5087559;28;20052;-83
2021/12/10 08:50:43;;;;;;;28.10;12.93;;;2.10;99.90;;;;;;5045471;28;218975;-85
2021/12/10 08:53:26;;;;;;;23.35;11.43;;;2.10;99.90;;;;;;5066026;28;20040;-84
2021/12/10 08:56:00;;;;;;;18.42;11.32;;;2.20;99.90;;;;;;5028960;28;20037;-82
2021/12/10 08:58:29;;;;;;;21.07;11.53;;;2.10;99.90;;;;;;4939640;28;3005380;-82
2021/12/10 09:01:28;;;;;;;20.85;10.80;;;2.10;99.90;;;;;;5042225;28;20068;-85
2021/12/10 09:04:16;;;;;;;19.27;10.60;;;2.20;99.90;;;;;;5014862;28;68901;-82
2021/12/10 09:10:48;;;;;;;20.63;10.73;;;2.20;99.90;;;;;;4823783;28;6021027;-81
2021/12/10 09:13:29;;;;;;;19.08;10.43;;;2.20;99.90;;;;;;4984905;28;20415;-83
2021/12/10 09:17:08;;;;;;;23.80;11.23;;;2.30;99.90;;;;;;4863811;29;20052;-83
2021/12/10 09:23:55;;;;;;;;;;;;;;;;;;;;;
2021/12/10 09:30:59;;;;;;;20.50;9.90;;;2.50;99.90;;;;;;4745887;30;20056;-84
2021/12/10 09:33:33;;;;;;;19.83;9.57;;;2.50;99.90;;;;;;5031497;28;266343;-69
2021/12/10 09:36:00;;;;;;;21.30;10.35;;;2.50;99.90;;;;;;4999061;28;20076;-68
2021/12/10 09:38:27;;;;;;;19.40;9.18;;;2.60;99.90;;;;;;4983159;28;267841;-69
2021/12/10 09:41:05;;;;;;;18.65;9.80;;;2.60;99.90;;;;;;4992696;28;20050;-68
2021/12/10 09:43:34;;;;;;;17.08;9.40;;;2.70;99.90;;;;;;4647978;28;10003603;-69
2021/12/10 09:46:01;;;;;;;18.77;8.85;;;2.70;99.90;;;;;;4999249;28;20046;-69
2021/12/10 09:48:27;;;;;;;23.58;8.90;;;2.70;99.90;;;;;;4981364;28;256601;-68
2021/12/10 09:51:01;;;;;;;19.83;9.02;;;2.80;99.90;;;;;;5014867;28;20054;-68
2021/12/10 09:53:30;;;;;;;17.17;8.38;;;2.80;99.90;;;;;;4981642;28;268575;-68
2021/12/10 09:55:57;;;;;;;18.90;9.13;;;2.90;99.90;;;;;;4981127;28;20061;-68
2021/12/10 09:58:25;;;;;;;19.98;9.13;;;2.90;99.90;;;;;;4960133;28;262264;-68
2021/12/10 10:01:00;;;;;;;18.08;9.20;;;2.90;99.90;;;;;;4990665;28;20051;-68
2021/12/10 10:03:30;;;;;;;16.10;7.85;;;2.90;99.90;;;;;;4947872;28;262545;-68
2021/12/10 10:05:56;;;;;;;17.10;8.07;;;3.00;99.90;;;;;;4977269;28;20065;-69
2021/12/10 10:08:27;;;;;;;17.30;8.20;;;3.00;99.90;;;;;;4956113;28;306054;-68
2021/12/10 10:10:57;;;;;;;19.63;8.17;;;3.10;99.90;;;;;;4992470;28;20081;-68
2021/12/10 10:13:30;;;;;;;15.60;7.88;;;3.10;99.90;;;;;;4961652;28;275912;-68
2021/12/10 10:15:59;;;;;;;17.00;8.00;;;3.10;99.90;;;;;;4991970;28;20042;-67
2021/12/10 10:18:28;;;;;;;19.20;8.83;;;3.20;99.90;;;;;;4959086;28;276492;-67
2021/12/10 10:21:00;;;;;;;20.15;8.50;;;3.20;99.90;;;;;;4991492;28;20065;-67
2021/12/10 10:23:28;;;;;;;16.67;8.00;;;3.20;99.90;;;;;;4959647;28;254361;-67
2021/12/10 10:25:57;;;;;;;17.45;8.13;;;3.30;99.90;;;;;;4996925;28;20062;-68
2021/12/10 10:28:24;;;;;;;17.75;7.65;;;3.30;99.90;;;;;;4978175;28;265998;-68
2021/12/10 10:31:02;;;;;;;19.02;7.72;;;3.40;99.90;;;;;;4995916;28;20550;-68
2021/12/10 10:33:34;;;;;;;16.42;7.78;;;3.40;99.90;;;;;;4979108;28;256239;-68
2021/12/10 10:36:08;;;;;;;13.80;7.00;;;3.40;99.90;;;;;;4998117;28;20602;-67
2021/12/10 10:38:35;;;;;;;17.48;7.90;;;3.50;99.90;;;;;;4978180;28;260038;-68
2021/12/10 10:41:06;;;;;;;17.45;7.68;;;3.50;99.90;;;;;;4994091;28;20419;-68
2021/12/10 10:43:33;;;;;;;16.50;7.80;;;3.60;99.90;;;;;;4973181;28;233333;-68
2021/12/10 10:46:00;;;;;;;15.15;7.80;;;3.60;99.90;;;;;;4985405;28;20046;-68
2021/12/10 10:48:27;;;;;;;15.57;6.97;;;3.70;99.90;;;;;;4966193;28;260958;-67
2021/12/10 10:50:59;;;;;;;17.13;6.75;;;3.70;99.90;;;;;;4972186;28;20418;-68
2021/12/10 10:53:30;;;;;;;12.27;6.70;;;3.80;99.90;;;;;;4964797;28;255494;-68
2021/12/10 10:55:59;;;;;;;14.82;7.28;;;3.80;99.90;;;;;;4967743;28;20055;-67
2021/12/10 10:58:30;;;;;;;17.05;6.85;;;3.80;99.90;;;;;;4964558;28;268553;-68
2021/12/10 11:01:14;;;;;;;14.17;6.50;;;3.90;99.90;;;;;;4984310;28;20085;-68
2021/12/10 11:03:51;;;;;;;17.48;5.85;;;3.90;99.90;;;;;;4853168;28;2996910;-68
2021/12/10 11:06:29;;;;;;;15.52;6.65;;;3.90;99.90;;;;;;4985437;28;20078;-68
2021/12/10 11:09:14;;;;;;;14.50;6.60;;;4.00;99.90;;;;;;4965527;28;254691;-68
2021/12/10 11:11:52;;;;;;;15.75;6.32;;;4.00;99.90;;;;;;4984762;28;20150;-68
2021/12/10 11:14:42;;;;;;;12.48;6.05;;;4.10;99.90;;;;;;4965009;28;256505;-68
2021/12/10 11:17:25;;;;;;;14.57;5.90;;;4.20;99.90;;;;;;4986296;28;20447;-68
2021/12/10 11:19:55;;;;;;;15.32;6.35;;;4.20;99.90;;;;;;4967349;28;261737;-68
2021/12/10 11:22:23;;;;;;;15.18;6.10;;;4.30;99.90;;;;;;4968739;28;20058;-67
2021/12/10 11:24:57;;;;;;;17.45;6.05;;;4.30;99.90;;;;;;4954405;28;90579;-67
2021/12/10 11:27:43;;;;;;;11.70;5.95;;;4.40;99.90;;;;;;4988890;28;20046;-67
2021/12/10 11:30:13;;;;;;;15.13;6.32;;;4.40;99.90;;;;;;4966113;28;268121;-67
2021/12/10 11:32:42;;;;;;;13.60;6.00;;;4.50;99.90;;;;;;4965658;28;20054;-68
2021/12/10 11:35:11;;;;;;;15.50;5.88;;;4.50;99.90;;;;;;4965528;28;268987;-67
2021/12/10 11:37:39;;;;;;;14.35;5.75;;;4.50;99.90;;;;;;4986968;28;20050;-67
2021/12/10 11:40:39;;;;;;;16.20;5.63;;;4.60;99.90;;;;;;4965151;28;265572;-68
2021/12/10 11:43:32;;;;;;;13.57;5.30;;;4.60;99.90;;;;;;4970352;28;20065;-67
2021/12/10 11:49:03;;;;;;;12.00;5.05;;;4.70;99.90;;;;;;4965629;28;266764;-67
2021/12/10 11:51:46;;;;;;;14.52;5.18;;;4.70;99.90;;;;;;4983808;28;20054;-67
2021/12/10 11:54:21;;;;;;;12.20;4.93;;;4.70;99.90;;;;;;4964553;28;261734;-68
2021/12/10 11:56:54;;;;;;;12.82;4.93;;;4.70;99.90;;;;;;4981354;28;20046;-67
2021/12/10 11:59:50;;;;;;;13.55;4.88;;;4.80;99.90;;;;;;4966505;28;259178;-67
2021/12/10 12:02:20;;;;;;;13.85;5.40;;;4.80;99.90;;;;;;4929275;29;20067;-67
2021/12/10 12:04:50;;;;;;;12.80;5.30;;;4.80;99.90;;;;;;4895950;28;239964;-67
2021/12/10 12:07:21;;;;;;;12.25;5.30;;;4.90;99.90;;;;;;4929915;29;20505;-67
2021/12/10 12:10:02;;;;;;;14.07;6.00;;;5.00;99.90;;;;;;4918119;29;95293;-67
2021/12/10 12:12:40;;;;;;;14.43;5.00;;;5.80;99.90;;;;;;4927840;29;20059;-67
2021/12/10 12:15:21;;;;;;;14.10;5.65;;;6.80;99.90;;;;;;4915611;29;114648;-66
2021/12/10 12:17:54;;;;;;;13.05;4.97;;;7.60;99.90;;;;;;4928294;29;20425;-67
2021/12/10 12:20:26;;;;;;;14.02;5.20;;;8.40;99.90;;;;;;4914894;29;134391;-68
2021/12/10 12:25:54;;;;;;;15.77;5.07;;;9.60;99.90;;;;;;4922039;29;20096;-67
2021/12/10 12:28:24;;;;;;;10.48;4.72;;;10.20;99.90;;;;;;4918852;29;275528;-66
2021/12/10 12:31:04;;;;;;;11.05;4.32;;;10.40;99.90;;;;;;4927615;29;20402;-67
2021/12/10 12:33:57;;;;;;;11.75;4.60;;;10.60;99.90;;;;;;4914538;28;156507;-68
2021/12/10 12:36:26;;;;;;;10.63;3.92;;;10.90;99.90;;;;;;4927844;29;20068;-68
2021/12/10 12:38:53;;;;;;;15.23;4.30;;;11.30;99.90;;;;;;4925198;28;256779;-68
2021/12/10 12:41:27;;;;;;;10.25;3.75;;;11.20;99.40;;;;;;4981362;28;20042;-67
2021/12/10 12:44:15;;;;;;;12.73;4.10;;;11.30;99.20;;;;;;4968866;28;264262;-68
2021/12/10 12:47:00;;;;;;;9.60;3.50;;;11.40;96.70;;;;;;4981349;28;20062;-68
2021/12/10 12:49:37;;;;;;;10.93;3.70;;;11.50;97.70;;;;;;4963493;28;271593;-67
2021/12/10 12:52:08;;;;;;;12.55;4.00;;;11.50;98.70;;;;;;4982770;28;20049;-67
2021/12/10 12:54:37;;;;;;;15.73;4.25;;;11.80;99.10;;;;;;4961936;28;273982;-67
2021/12/10 12:57:06;;;;;;;20.27;3.58;;;11.90;98.40;;;;;;4982342;28;20518;-67
2021/12/10 12:59:34;;;;;;;14.85;3.78;;;11.90;98.10;;;;;;4963801;28;255988;-67
2021/12/10 13:02:06;;;;;;;11.38;3.75;;;12.10;99.20;;;;;;4982103;28;20054;-67
2021/12/10 13:04:39;;;;;;;8.73;3.47;;;12.40;99.30;;;;;;4950472;28;273469;-67
2021/12/10 13:07:18;;;;;;;12.18;3.63;;;12.40;97.50;;;;;;4979273;28;20050;-67
2021/12/10 13:09:55;;;;;;;9.43;3.10;;;12.60;97.40;;;;;;4962857;28;257529;-67
2021/12/10 13:12:48;;;;;;;11.75;3.25;;;12.60;96.00;;;;;;4981489;28;20069;-68
2021/12/10 13:15:22;;;;;;;12.15;3.38;;;12.80;96.80;;;;;;4961805;28;258033;-68
2021/12/10 13:18:02;;;;;;;11.13;3.50;;;13.00;95.70;;;;;;4982139;28;20061;-68
2021/12/10 13:20:37;;;;;;;12.15;3.30;;;12.70;94.30;;;;;;4957070;28;20054;-68
2021/12/10 13:23:10;;;;;;;13.77;3.50;;;12.70;93.80;;;;;;4980966;28;20832;-68
2021/12/10 13:25:37;;;;;;;14.27;3.60;;;13.00;94.60;;;;;;4966782;28;91903;-67
2021/12/10 13:28:04;;;;;;;10.25;2.90;;;12.90;94.40;;;;;;4965130;28;20061;-67